createdAt,value
2022-12-05T00:02:25.919Z,4.90
2022-12-05T00:05:49.779Z,5.03
2022-12-05T00:09:14.758Z,4.30
2022-12-05T00:12:39.615Z,6.17
2022-12-05T00:16:03.036Z,5.03
2022-12-05T00:19:26.648Z,4.63
2022-12-05T00:22:50.197Z,5.00
2022-12-05T00:26:14.532Z,5.20
2022-12-05T00:29:39.550Z,4.90
2022-12-05T00:33:03.082Z,5.10
2022-12-05T00:36:28.798Z,5.87
2022-12-05T00:39:52.577Z,6.03
2022-12-05T00:43:16.033Z,4.80
2022-12-05T00:46:41.681Z,5.40
2022-12-05T00:50:06.102Z,4.93
2022-12-05T00:53:29.602Z,5.53
2022-12-05T00:56:56.183Z,5.27
2022-12-05T01:00:21.032Z,5.13
2022-12-05T01:03:47.315Z,4.97
2022-12-05T01:07:11.733Z,4.60
2022-12-05T01:10:35.208Z,4.93
2022-12-05T01:13:59.462Z,5.20
2022-12-05T01:17:23.030Z,4.57
2022-12-05T01:20:48.584Z,4.57
2022-12-05T01:24:13.657Z,5.23
2022-12-05T01:27:37.121Z,4.77
2022-12-05T01:31:06.799Z,4.57
2022-12-05T01:34:30.239Z,4.50
2022-12-05T01:37:55.133Z,4.80
2022-12-05T01:41:24.933Z,4.57
2022-12-05T01:45:14.775Z,4.03
2022-12-05T01:48:38.464Z,4.20
2022-12-05T01:52:07.569Z,4.63
2022-12-05T01:55:33.522Z,4.80
2022-12-05T01:58:57.948Z,4.73
2022-12-05T02:02:21.903Z,4.63
2022-12-05T02:05:49.604Z,4.20
2022-12-05T02:09:13.118Z,4.30
2022-12-05T02:12:39.360Z,4.83
2022-12-05T02:16:13.443Z,4.30
2022-12-05T02:20:13.235Z,3.67
2022-12-05T02:24:14.694Z,4.37
2022-12-05T02:28:12.426Z,5.50
2022-12-05T02:31:47.853Z,4.43
2022-12-05T02:35:26.496Z,3.97
2022-12-05T02:39:01.056Z,4.20
2022-12-05T02:42:34.528Z,4.80
2022-12-05T02:46:04.704Z,4.30
2022-12-05T02:49:34.550Z,5.50
2022-12-05T02:53:04.809Z,5.03
2022-12-05T02:56:30.873Z,6.60
2022-12-05T02:59:54.743Z,4.83
2022-12-05T03:03:22.439Z,5.30
2022-12-05T03:06:53.735Z,5.37
2022-12-05T03:10:25.254Z,6.23
2022-12-05T03:13:54.707Z,4.43
2022-12-05T03:17:23.521Z,4.37
2022-12-05T03:20:52.754Z,5.83
2022-12-05T03:24:17.986Z,5.80
2022-12-05T03:27:47.990Z,5.00
2022-12-05T03:31:18.409Z,5.10
2022-12-05T03:35:04.589Z,4.80
2022-12-05T03:38:36.930Z,5.90
2022-12-05T03:42:11.398Z,5.00
2022-12-05T03:45:44.718Z,5.57
2022-12-05T03:49:14.246Z,6.20
2022-12-05T03:53:18.114Z,4.57
2022-12-05T03:56:39.613Z,4.93
2022-12-05T04:00:08.758Z,4.87
2022-12-05T04:03:41.561Z,4.70
2022-12-05T04:07:10.037Z,4.43
2022-12-05T04:10:49.361Z,4.80
2022-12-05T04:14:20.018Z,5.60
2022-12-05T04:17:54.063Z,4.77
2022-12-05T04:21:38.306Z,4.20
2022-12-05T04:25:22.406Z,3.87
2022-12-05T04:28:57.892Z,4.70
2022-12-05T04:32:28.775Z,4.07
2022-12-05T04:36:02.109Z,3.93
2022-12-05T04:39:35.030Z,4.40
2022-12-05T04:43:02.760Z,4.37
2022-12-05T04:46:26.967Z,5.03
2022-12-05T04:49:53.849Z,4.30
2022-12-05T04:53:22.522Z,4.10
2022-12-05T04:56:51.351Z,4.40
2022-12-05T05:00:15.758Z,5.27
2022-12-05T05:03:44.519Z,4.63
2022-12-05T05:07:10.358Z,4.43
2022-12-05T05:10:45.976Z,4.80
2022-12-05T05:14:09.657Z,4.20
2022-12-05T05:17:33.137Z,4.20
2022-12-05T05:20:57.702Z,4.97
2022-12-05T05:24:23.568Z,5.30
2022-12-05T05:27:52.153Z,4.57
2022-12-05T05:31:17.683Z,4.53
2022-12-05T05:34:41.463Z,4.50
2022-12-05T05:38:05.386Z,5.23
2022-12-05T05:41:32.975Z,5.10
2022-12-05T05:44:58.881Z,5.10
2022-12-05T05:48:22.884Z,4.57
2022-12-05T05:51:46.365Z,4.97
2022-12-05T05:55:11.487Z,4.73
2022-12-05T05:58:35.534Z,4.73
2022-12-05T06:02:00.355Z,3.97
2022-12-05T06:05:23.900Z,4.30
2022-12-05T06:08:48.035Z,3.73
2022-12-05T06:12:11.640Z,3.80
2022-12-05T06:15:35.140Z,5.30
2022-12-05T06:19:00.265Z,3.90
2022-12-05T06:22:23.736Z,4.50
2022-12-05T06:25:49.984Z,4.87
2022-12-05T06:29:13.410Z,4.93
2022-12-05T06:32:37.108Z,4.17
2022-12-05T06:36:09.482Z,5.13
2022-12-05T06:39:33.370Z,4.57
2022-12-05T06:42:56.972Z,4.73
2022-12-05T06:46:20.600Z,4.30
2022-12-05T06:49:44.076Z,4.37
2022-12-05T06:53:08.983Z,4.27
2022-12-05T06:56:32.816Z,3.80
2022-12-05T07:00:16.860Z,4.70
2022-12-05T07:03:39.517Z,3.83
2022-12-05T07:07:03.060Z,4.30
2022-12-05T07:10:27.994Z,4.10
2022-12-05T07:13:51.827Z,4.80
2022-12-05T07:17:15.400Z,3.90
2022-12-05T07:21:03.939Z,4.77
2022-12-05T07:24:22.753Z,4.73
2022-12-05T07:27:47.707Z,3.83
2022-12-05T07:31:13.934Z,3.40
2022-12-05T07:34:38.776Z,3.70
2022-12-05T07:38:02.593Z,3.77
2022-12-05T07:41:28.507Z,3.90
2022-12-05T07:44:53.393Z,3.73
2022-12-05T07:48:18.723Z,3.90
2022-12-05T07:51:42.831Z,4.63
2022-12-05T07:55:07.996Z,4.97
2022-12-05T07:58:32.779Z,4.27
2022-12-05T08:01:57.663Z,3.80
2022-12-05T08:05:21.335Z,4.47
2022-12-05T08:08:46.003Z,4.10
2022-12-05T08:12:10.125Z,3.80
2022-12-05T08:15:36.845Z,3.87
2022-12-05T08:19:04.772Z,4.20
2022-12-05T08:22:28.380Z,3.97
2022-12-05T08:25:51.894Z,3.83
2022-12-05T08:29:17.310Z,3.77
2022-12-05T08:32:40.950Z,3.23
2022-12-05T08:36:09.398Z,3.57
2022-12-05T08:39:38.174Z,4.40
2022-12-05T08:43:02.461Z,3.87
2022-12-05T08:46:26.347Z,3.20
2022-12-05T08:49:49.848Z,3.20
2022-12-05T08:53:14.907Z,3.30
2022-12-05T08:56:39.491Z,3.13
2022-12-05T09:00:05.728Z,3.60
2022-12-05T09:03:30.445Z,3.30
2022-12-05T09:06:53.927Z,3.50
2022-12-05T09:10:19.406Z,3.57
2022-12-05T09:13:44.393Z,3.20
2022-12-05T09:17:08.376Z,3.50
2022-12-05T09:20:32.077Z,3.60
2022-12-05T09:23:56.828Z,3.50
2022-12-05T09:27:21.801Z,2.87
2022-12-05T09:30:45.532Z,2.77
2022-12-05T09:34:09.311Z,2.33
2022-12-05T09:37:40.393Z,3.60
2022-12-05T09:41:16.867Z,3.00
2022-12-05T09:45:06.805Z,2.40
2022-12-05T09:48:32.428Z,2.00
2022-12-05T09:51:58.999Z,2.37
2022-12-05T09:55:23.194Z,2.33
2022-12-05T09:58:49.652Z,2.30
2022-12-05T10:02:33.577Z,2.30
2022-12-05T10:06:13.099Z,2.00
2022-12-05T10:10:04.370Z,1.93
2022-12-05T10:13:46.371Z,2.53
2022-12-05T10:17:24.774Z,2.53
2022-12-05T10:20:53.431Z,2.77
2022-12-05T10:24:23.259Z,2.23
2022-12-05T10:27:52.835Z,2.27
2022-12-05T10:31:22.333Z,2.27
2022-12-05T10:34:48.409Z,2.43
2022-12-05T10:38:21.354Z,2.40
2022-12-05T10:41:45.252Z,2.37
2022-12-05T10:45:17.101Z,3.13
2022-12-05T10:48:43.244Z,2.30
2022-12-05T10:52:08.471Z,3.20
2022-12-05T10:55:38.308Z,2.80
2022-12-05T10:59:01.762Z,3.20
2022-12-05T11:02:29.815Z,2.83
2022-12-05T11:05:55.501Z,3.33
2022-12-05T11:09:25.046Z,2.67
2022-12-05T11:12:49.415Z,2.97
2022-12-05T11:16:26.720Z,2.60
2022-12-05T11:19:50.267Z,2.97
2022-12-05T11:23:25.196Z,2.77
2022-12-05T11:26:50.673Z,2.90
2022-12-05T11:30:20.372Z,2.60
2022-12-05T11:33:44.003Z,2.80
2022-12-05T11:37:19.353Z,2.60
2022-12-05T11:40:54.755Z,2.53
2022-12-05T11:44:44.218Z,2.63
2022-12-05T11:48:54.217Z,2.87
2022-12-05T11:52:37.442Z,2.67
2022-12-05T11:56:20.416Z,3.07
2022-12-05T12:00:08.903Z,3.10
2022-12-05T12:04:22.519Z,2.30
2022-12-05T12:08:04.561Z,1.73
2022-12-05T12:11:38.519Z,2.10
2022-12-05T12:15:29.980Z,2.40
2022-12-05T12:19:18.605Z,2.77
2022-12-05T12:23:09.156Z,3.00
2022-12-05T12:26:52.512Z,2.83
2022-12-05T12:30:25.092Z,3.47
2022-12-05T12:33:59.927Z,2.80
2022-12-05T12:37:42.339Z,3.23
2022-12-05T12:41:18.874Z,2.90
2022-12-05T12:45:36.512Z,3.30
2022-12-05T12:49:20.578Z,3.27
2022-12-05T12:53:26.756Z,2.90
2022-12-05T12:57:15.284Z,3.10
2022-12-05T13:00:57.497Z,2.70
2022-12-05T13:04:29.947Z,2.90
2022-12-05T13:08:00.092Z,3.00
2022-12-05T13:11:25.096Z,3.17
2022-12-05T13:14:58.505Z,3.10
2022-12-05T13:18:25.426Z,2.60
2022-12-05T13:21:51.564Z,2.37
2022-12-05T13:25:17.207Z,2.87
2022-12-05T13:28:51.320Z,2.60
2022-12-05T13:32:30.496Z,2.87
2022-12-05T13:36:17.536Z,2.87
2022-12-05T13:40:00.708Z,2.73
2022-12-05T13:43:29.671Z,3.47
2022-12-05T13:46:53.725Z,3.47
2022-12-05T13:50:24.586Z,3.47
2022-12-05T13:54:01.591Z,3.20
2022-12-05T13:57:51.448Z,3.50
2022-12-05T14:01:55.343Z,3.20
2022-12-05T14:05:48.546Z,3.87
2022-12-05T14:09:31.512Z,2.70
2022-12-05T14:12:59.045Z,3.67
2022-12-05T14:16:50.585Z,3.73
2022-12-05T14:20:29.536Z,3.60
2022-12-05T14:24:08.794Z,3.30
2022-12-05T14:27:50.398Z,2.60
2022-12-05T14:31:39.535Z,3.20
2022-12-05T14:35:13.560Z,3.13
2022-12-05T14:38:38.501Z,3.10
2022-12-05T14:42:06.854Z,2.63
2022-12-05T14:45:37.027Z,2.93
2022-12-05T14:49:54.346Z,3.53
2022-12-05T14:53:33.036Z,3.20
2022-12-05T14:57:12.246Z,2.70
2022-12-05T15:00:36.253Z,2.83
2022-12-05T15:04:18.401Z,2.63
2022-12-05T15:07:44.037Z,3.00
2022-12-05T15:11:07.678Z,3.07
2022-12-05T15:14:40.892Z,3.43
2022-12-05T15:18:19.832Z,3.40
2022-12-05T15:21:48.923Z,3.27
2022-12-05T15:25:30.734Z,2.77
2022-12-05T15:29:07.042Z,3.00
2022-12-05T15:32:30.642Z,3.40
2022-12-05T15:35:56.852Z,3.23
2022-12-05T15:39:25.816Z,2.77
2022-12-05T15:42:51.696Z,2.93
2022-12-05T15:46:24.094Z,2.60
2022-12-05T15:49:47.968Z,3.50
2022-12-05T15:53:18.514Z,2.87
2022-12-05T15:56:51.614Z,3.00
2022-12-05T16:00:19.477Z,2.80
2022-12-05T16:03:51.193Z,3.60
2022-12-05T16:07:16.004Z,4.07
2022-12-05T16:10:39.741Z,3.57
2022-12-05T16:14:08.694Z,3.53
2022-12-05T16:17:42.419Z,3.20
2022-12-05T16:21:37.425Z,3.50
2022-12-05T16:25:13.906Z,3.50
2022-12-05T16:28:37.972Z,4.00
2022-12-05T16:32:14.966Z,3.50
2022-12-05T16:35:41.459Z,3.40
2022-12-05T16:39:08.279Z,3.80
2022-12-05T16:42:32.267Z,3.80
2022-12-05T16:45:59.800Z,4.37
2022-12-05T16:49:35.313Z,3.70
2022-12-05T16:53:19.305Z,3.30
2022-12-05T16:56:43.226Z,3.40
2022-12-05T17:00:08.888Z,3.83
2022-12-05T17:03:35.234Z,3.83
2022-12-05T17:07:02.927Z,4.27
2022-12-05T17:10:26.755Z,3.40
2022-12-05T17:13:51.999Z,3.70
2022-12-05T17:17:18.190Z,3.73
2022-12-05T17:20:47.390Z,3.80
2022-12-05T17:24:17.678Z,3.90
2022-12-05T17:27:41.144Z,3.50
2022-12-05T17:31:04.709Z,3.60
2022-12-05T17:34:29.631Z,4.13
2022-12-05T17:37:53.255Z,3.73
2022-12-05T17:41:20.902Z,4.60
2022-12-05T17:44:44.375Z,3.90
2022-12-05T17:48:10.854Z,4.00
2022-12-05T17:51:44.062Z,3.83
2022-12-05T17:55:20.115Z,4.50
2022-12-05T17:58:45.320Z,4.37
2022-12-05T18:02:11.596Z,4.37
2022-12-05T18:05:35.061Z,4.07
2022-12-05T18:08:58.626Z,4.67
2022-12-05T18:12:22.489Z,5.10
2022-12-05T18:15:49.324Z,4.23
2022-12-05T18:19:12.941Z,5.27
2022-12-05T18:22:37.197Z,4.87
2022-12-05T18:26:01.785Z,4.27
2022-12-05T18:29:25.797Z,4.17
2022-12-05T18:32:50.746Z,4.73
2022-12-05T18:36:17.235Z,3.97
2022-12-05T18:39:41.034Z,3.50
2022-12-05T18:43:04.773Z,3.60
2022-12-05T18:46:28.546Z,3.73
2022-12-05T18:49:53.479Z,3.53
2022-12-05T18:53:16.955Z,4.03
2022-12-05T18:56:40.680Z,3.93
2022-12-05T19:00:05.451Z,3.50
2022-12-05T19:03:29.240Z,3.30
2022-12-05T19:06:57.635Z,3.60
2022-12-05T19:10:21.341Z,4.90
2022-12-05T19:13:44.921Z,4.23
2022-12-05T19:17:08.404Z,4.13
2022-12-05T19:20:32.299Z,3.83
2022-12-05T19:23:58.259Z,4.60
2022-12-05T19:27:21.705Z,4.60
2022-12-05T19:30:45.530Z,3.67
2022-12-05T19:34:09.698Z,3.90
2022-12-05T19:37:33.096Z,5.30
2022-12-05T19:40:58.454Z,5.17
2022-12-05T19:44:21.943Z,4.20
2022-12-05T19:47:45.336Z,4.70
2022-12-05T19:51:09.325Z,4.83
2022-12-05T19:54:32.715Z,4.60
2022-12-05T19:57:57.558Z,4.30
2022-12-05T20:01:24.265Z,4.87
2022-12-05T20:04:47.911Z,4.70
2022-12-05T20:08:11.604Z,5.00
2022-12-05T20:11:35.533Z,4.33
2022-12-05T20:15:00.422Z,4.50
2022-12-05T20:18:23.970Z,4.27
2022-12-05T20:21:47.691Z,4.30
2022-12-05T20:25:11.365Z,4.60
2022-12-05T20:28:34.989Z,4.07
2022-12-05T20:31:59.778Z,4.37
2022-12-05T20:35:24.395Z,4.10
2022-12-05T20:38:48.811Z,4.10
2022-12-05T20:42:12.458Z,3.70
2022-12-05T20:45:35.957Z,3.20
2022-12-05T20:49:01.289Z,3.93
2022-12-05T20:52:24.895Z,3.80
2022-12-05T20:55:48.689Z,4.27
2022-12-05T20:59:13.931Z,3.80
2022-12-05T21:02:37.357Z,4.17
2022-12-05T21:06:08.234Z,4.37
2022-12-05T21:09:31.917Z,5.23
2022-12-05T21:12:55.416Z,3.93
2022-12-05T21:16:22.994Z,3.40
2022-12-05T21:19:46.546Z,3.80
2022-12-05T21:23:11.943Z,3.90
2022-12-05T21:26:36.576Z,3.83
2022-12-05T21:30:00.221Z,4.57
2022-12-05T21:33:28.722Z,3.67
2022-12-05T21:36:52.933Z,4.30
2022-12-05T21:40:17.966Z,4.40
2022-12-05T21:43:41.483Z,4.10
2022-12-05T21:47:05.005Z,4.00
2022-12-05T21:50:28.710Z,3.83
2022-12-05T21:53:52.999Z,4.80
2022-12-05T21:57:18.412Z,3.77
2022-12-05T22:00:43.145Z,3.70
2022-12-05T22:04:06.786Z,4.10
2022-12-05T22:07:30.568Z,3.43
2022-12-05T22:10:54.115Z,3.50
2022-12-05T22:14:18.925Z,3.27
2022-12-05T22:17:44.022Z,3.47
2022-12-05T22:21:12.237Z,3.53
2022-12-05T22:24:35.752Z,3.37
2022-12-05T22:27:59.372Z,3.97
2022-12-05T22:31:25.924Z,3.57
2022-12-05T22:34:49.510Z,3.40
2022-12-05T22:38:13.048Z,3.50
2022-12-05T22:41:36.803Z,3.07
2022-12-05T22:45:00.253Z,3.40
2022-12-05T22:48:27.426Z,3.90
2022-12-05T22:51:50.912Z,3.47
2022-12-05T22:55:14.518Z,3.87
2022-12-05T22:58:40.201Z,3.53
2022-12-05T23:02:03.698Z,3.50
2022-12-05T23:05:28.692Z,3.10
2022-12-05T23:08:52.433Z,3.40
2022-12-05T23:12:15.886Z,3.70
2022-12-05T23:15:39.511Z,3.17
2022-12-05T23:19:06.206Z,3.67
2022-12-05T23:22:31.049Z,3.13
2022-12-05T23:25:58.217Z,3.50
2022-12-05T23:29:21.927Z,3.90
2022-12-05T23:32:45.452Z,3.23
2022-12-05T23:36:10.557Z,3.00
2022-12-05T23:39:35.423Z,2.90
2022-12-05T23:42:58.832Z,3.07
2022-12-05T23:46:24.723Z,3.63
2022-12-05T23:49:48.741Z,3.03
2022-12-05T23:53:12.408Z,2.80
2022-12-05T23:56:37.832Z,3.10
